Time;durP1;ratioP1;P1;durP2;ratioP2;P2;SDS_P1;SDS_P2;PMS_P1;PMS_P2;Temp;Humidity;BMP_temperature;BMP_pressure;BME280_temperature;BME280_humidity;BME280_pressure;Samples;Min_cycle;Max_cycle;Signal;HPM_P1;HPM_P2
2023/09/15 00:00:43;;;;;;;2.47;1.40;;;11.40;34.70;;;;;;5077480;28;20187;-87
2023/09/15 00:03:09;;;;;;;2.50;1.50;;;11.30;60.50;;;;;;5064343;28;20184;-87
2023/09/15 00:05:35;;;;;;;2.60;1.70;;;11.20;63.70;;;;;;5075305;28;20177;-86
2023/09/15 00:08:04;;;;;;;3.07;1.63;;;11.20;99.90;;;;;;5075176;28;20204;-87
2023/09/15 00:10:31;;;;;;;2.43;1.80;;;11.20;99.90;;;;;;5074886;28;20697;-87
2023/09/15 00:13:00;;;;;;;2.63;1.70;;;11.20;99.90;;;;;;5063064;28;20257;-87
2023/09/15 00:15:26;;;;;;;2.10;1.60;;;11.30;97.80;;;;;;5074912;28;20208;-87
2023/09/15 00:17:54;;;;;;;2.57;1.80;;;11.40;99.90;;;;;;5094208;28;20240;-88
2023/09/15 00:20:20;;;;;;;1.93;1.60;;;11.30;91.10;;;;;;5076925;28;20168;-86
2023/09/15 00:22:50;;;;;;;2.27;1.60;;;11.30;99.90;;;;;;5076892;28;20658;-87
2023/09/15 00:25:20;;;;;;;3.43;1.80;;;11.30;1.00;;;;;;5095148;28;20168;-87
2023/09/15 00:27:47;;;;;;;2.90;1.70;;;11.40;42.80;;;;;;5077191;28;20674;-86
2023/09/15 00:30:17;;;;;;;2.80;1.60;;;11.30;7.50;;;;;;5095153;28;20180;-87
2023/09/15 00:32:45;;;;;;;3.37;2.00;;;11.30;1.00;;;;;;5094867;28;20185;-87
2023/09/15 00:35:11;;;;;;;2.53;1.47;;;11.40;1.00;;;;;;5077175;28;20172;-87
2023/09/15 00:37:37;;;;;;;2.87;1.67;;;11.20;1.00;;;;;;5068265;28;20207;-87
2023/09/15 00:40:06;;;;;;;1.77;1.60;;;11.10;13.60;;;;;;5076670;28;20168;-86
2023/09/15 00:42:31;;;;;;;1.83;1.40;;;11.10;47.60;;;;;;5076726;28;20178;-84
2023/09/15 00:45:03;;;;;;;3.07;1.40;;;11.00;1.00;;;;;;5056943;28;20268;-87
2023/09/15 00:47:31;;;;;;;1.70;1.47;;;11.10;99.90;;;;;;5074321;28;20694;-87
2023/09/15 00:49:57;;;;;;;2.33;1.80;;;11.00;13.00;;;;;;5056653;28;20225;-87
2023/09/15 00:52:22;;;;;;;3.40;1.90;;;11.00;39.40;;;;;;5076715;28;20188;-87
2023/09/15 00:54:48;;;;;;;1.90;1.50;;;11.10;34.50;;;;;;5093912;28;20188;-86
2023/09/15 00:57:14;;;;;;;2.57;1.63;;;11.00;1.00;;;;;;5076344;28;20208;-87
2023/09/15 00:59:40;;;;;;;3.73;1.60;;;11.10;1.00;;;;;;5094632;28;20173;-87
2023/09/15 01:02:06;;;;;;;2.50;1.70;;;11.00;15.00;;;;;;5094149;28;20552;-87
2023/09/15 01:04:33;;;;;;;2.93;1.50;;;10.90;28.60;;;;;;5086317;28;20181;-87
2023/09/15 01:07:02;;;;;;;2.07;1.63;;;10.90;96.10;;;;;;5085846;28;20228;-87
2023/09/15 01:09:29;;;;;;;2.37;1.70;;;10.70;8.70;;;;;;5086850;28;20206;-87
2023/09/15 01:11:55;;;;;;;2.43;1.67;;;10.60;99.90;;;;;;5075849;28;20671;-87
2023/09/15 01:14:21;;;;;;;1.80;1.50;;;10.60;99.90;;;;;;5076053;28;20173;-87
2023/09/15 01:16:56;;;;;;;2.63;1.70;;;10.70;99.90;;;;;;5076098;28;20196;-87
2023/09/15 01:19:37;;;;;;;3.87;1.90;;;10.50;99.90;;;;;;5075909;28;20525;-87
2023/09/15 01:22:28;;;;;;;2.03;1.50;;;10.50;99.90;;;;;;5075912;28;20241;-87
2023/09/15 01:25:14;;;;;;;2.67;1.60;;;10.60;99.90;;;;;;5075854;28;20229;-87
2023/09/15 01:28:07;;;;;;;2.30;1.83;;;10.50;99.90;;;;;;5066429;28;20665;-87
2023/09/15 01:30:33;;;;;;;2.67;1.63;;;10.70;99.90;;;;;;5072352;28;20615;-87
2023/09/15 01:33:00;;;;;;;2.30;1.70;;;10.70;99.90;;;;;;5085551;28;20656;-87
2023/09/15 01:35:25;;;;;;;2.87;1.80;;;10.70;99.90;;;;;;5075758;28;20176;-87
2023/09/15 01:37:51;;;;;;;2.00;1.70;;;10.70;99.90;;;;;;5075336;28;20208;-87
2023/09/15 01:40:17;;;;;;;4.67;1.97;;;10.70;99.90;;;;;;5093525;28;20168;-87
2023/09/15 01:42:46;;;;;;;2.97;1.90;;;10.60;99.90;;;;;;5093342;28;20249;-87
2023/09/15 01:45:11;;;;;;;3.10;1.90;;;10.60;99.90;;;;;;5093843;28;20260;-85
2023/09/15 01:47:38;;;;;;;4.57;1.90;;;10.60;99.90;;;;;;5075229;28;20329;-87
2023/09/15 01:50:04;;;;;;;3.73;1.70;;;10.60;99.90;;;;;;5093250;28;20200;-87
2023/09/15 01:52:30;;;;;;;2.33;1.80;;;10.70;99.90;;;;;;5093160;28;20172;-87
2023/09/15 01:54:56;;;;;;;2.73;1.60;;;10.60;99.90;;;;;;5093215;28;20262;-85
2023/09/15 01:57:22;;;;;;;3.30;1.80;;;10.50;99.90;;;;;;5093463;28;20204;-85
2023/09/15 01:59:48;;;;;;;3.67;1.70;;;10.60;99.90;;;;;;5075340;28;20173;-85
2023/09/15 02:02:14;;;;;;;2.50;1.50;;;10.50;99.90;;;;;;5069537;28;20176;-85
2023/09/15 02:04:40;;;;;;;3.53;1.80;;;10.40;99.90;;;;;;5072873;28;20264;-85
2023/09/15 02:07:07;;;;;;;2.60;1.60;;;10.50;99.90;;;;;;5054328;28;20173;-85
2023/09/15 02:09:32;;;;;;;2.23;1.60;;;10.60;99.90;;;;;;5055195;28;20227;-85
2023/09/15 02:11:58;;;;;;;2.60;1.70;;;10.50;98.70;;;;;;5073032;28;20181;-85
2023/09/15 02:14:25;;;;;;;2.20;1.70;;;10.50;2.40;;;;;;5055105;28;20173;-85
2023/09/15 02:16:51;;;;;;;2.33;1.50;;;10.50;99.90;;;;;;5055036;28;20208;-84
2023/09/15 02:19:18;;;;;;;2.50;1.60;;;10.40;7.40;;;;;;5055025;28;20268;-85
2023/09/15 02:21:44;;;;;;;2.20;1.83;;;10.40;99.90;;;;;;5091202;28;20172;-85
2023/09/15 02:24:10;;;;;;;2.93;1.43;;;10.40;99.90;;;;;;5074728;28;20632;-85
2023/09/15 02:26:35;;;;;;;2.43;1.67;;;10.40;99.90;;;;;;5066524;28;20200;-88
2023/09/15 02:29:01;;;;;;;2.90;1.53;;;10.50;8.50;;;;;;5072531;28;20285;-85
2023/09/15 02:31:26;;;;;;;1.93;1.70;;;10.20;99.90;;;;;;5088394;28;20229;-85
2023/09/15 02:33:52;;;;;;;2.40;1.77;;;10.20;99.90;;;;;;5074602;28;20184;-85
2023/09/15 02:36:17;;;;;;;2.60;1.63;;;10.30;99.90;;;;;;5060165;28;20258;-87
2023/09/15 02:38:43;;;;;;;3.43;1.70;;;10.30;32.00;;;;;;5072163;28;20188;-85
2023/09/15 02:41:08;;;;;;;2.77;1.73;;;10.20;99.90;;;;;;5077382;28;20165;-85
2023/09/15 02:43:34;;;;;;;1.70;1.60;;;10.40;99.90;;;;;;5084149;28;20263;-86
2023/09/15 02:46:04;;;;;;;2.57;1.43;;;10.40;90.70;;;;;;5084268;28;20199;-86
2023/09/15 02:48:30;;;;;;;2.70;1.70;;;10.40;11.20;;;;;;5092449;28;20215;-85
2023/09/15 02:50:58;;;;;;;2.27;1.80;;;10.40;46.50;;;;;;5074130;28;20169;-85
2023/09/15 02:53:23;;;;;;;1.80;1.50;;;10.30;99.90;;;;;;5088928;28;20701;-85
2023/09/15 02:56:00;;;;;;;1.40;1.30;;;10.20;21.00;;;;;;5074299;28;20201;-85
2023/09/15 02:58:27;;;;;;;2.23;1.60;;;10.20;58.60;;;;;;5092211;28;20191;-84
2023/09/15 03:00:53;;;;;;;3.07;1.70;;;10.10;91.10;;;;;;5074051;28;20310;-85
2023/09/15 03:03:19;;;;;;;1.70;1.50;;;10.10;99.90;;;;;;5074199;28;20205;-85
2023/09/15 03:05:46;;;;;;;2.00;1.60;;;10.00;99.90;;;;;;5073916;28;20173;-85
2023/09/15 03:08:12;;;;;;;3.73;2.00;;;10.00;99.90;;;;;;5054031;28;20709;-85
2023/09/15 03:10:38;;;;;;;3.30;1.87;;;10.00;99.90;;;;;;5080153;28;20172;-88
2023/09/15 03:13:05;;;;;;;2.30;1.60;;;10.00;99.90;;;;;;5079638;28;20173;-88
2023/09/15 03:15:32;;;;;;;2.53;1.70;;;10.10;99.90;;;;;;5054012;28;20695;-88
2023/09/15 03:17:57;;;;;;;2.93;1.60;;;10.00;99.90;;;;;;5091147;28;20277;-85
2023/09/15 03:20:23;;;;;;;2.20;1.80;;;10.00;99.90;;;;;;5091789;28;20173;-85
2023/09/15 03:22:51;;;;;;;2.20;1.70;;;10.00;99.90;;;;;;5092155;28;20176;-85
2023/09/15 03:25:17;;;;;;;2.10;1.70;;;10.00;99.90;;;;;;5086198;28;20181;-85
2023/09/15 03:27:43;;;;;;;3.47;1.73;;;9.90;99.90;;;;;;5089445;28;20628;-84
2023/09/15 03:30:10;;;;;;;3.50;1.87;;;10.00;99.90;;;;;;5091948;28;20172;-86
2023/09/15 03:32:35;;;;;;;3.20;1.63;;;10.10;99.90;;;;;;5077564;28;20653;-86
2023/09/15 03:35:02;;;;;;;3.70;2.10;;;10.00;99.90;;;;;;5065628;28;20183;-85
2023/09/15 03:37:28;;;;;;;2.73;1.90;;;9.80;99.90;;;;;;5082009;28;20204;-85
2023/09/15 03:39:53;;;;;;;3.10;1.63;;;9.80;99.90;;;;;;5077528;28;20183;-87
2023/09/15 03:42:19;;;;;;;4.57;2.00;;;9.70;99.90;;;;;;5059047;28;20656;-85
2023/09/15 03:44:44;;;;;;;4.00;2.20;;;9.90;99.90;;;;;;5071666;28;20172;-85
2023/09/15 03:47:10;;;;;;;4.70;1.93;;;10.10;99.90;;;;;;5091777;28;20203;-85
2023/09/15 03:49:35;;;;;;;2.60;1.80;;;10.10;98.40;;;;;;5073693;28;20203;-85
2023/09/15 03:52:01;;;;;;;4.47;2.10;;;9.90;99.90;;;;;;5079698;28;20181;-85
2023/09/15 03:54:27;;;;;;;4.67;2.10;;;9.80;99.90;;;;;;5071760;28;20181;-85
2023/09/15 03:56:54;;;;;;;3.90;2.13;;;9.90;99.90;;;;;;5071424;28;20205;-85
2023/09/15 03:59:20;;;;;;;2.93;2.10;;;10.00;99.90;;;;;;5068477;28;20171;-85
2023/09/15 04:01:47;;;;;;;3.50;2.10;;;10.00;50.80;;;;;;5073113;28;20169;-85
2023/09/15 04:04:13;;;;;;;3.03;2.00;;;9.90;94.30;;;;;;5065630;28;20191;-85
2023/09/15 04:06:38;;;;;;;3.13;1.97;;;9.80;99.90;;;;;;5091827;28;20710;-86
2023/09/15 04:09:09;;;;;;;5.17;2.00;;;9.70;99.90;;;;;;5061146;28;20280;-88
2023/09/15 04:11:35;;;;;;;4.07;2.30;;;9.70;99.90;;;;;;5056840;28;20672;-85
2023/09/15 04:14:01;;;;;;;5.20;2.27;;;9.60;99.90;;;;;;5082928;28;20248;-85
2023/09/15 04:16:26;;;;;;;6.47;2.43;;;9.60;99.90;;;;;;5075741;28;20276;-86
2023/09/15 04:18:52;;;;;;;6.33;2.53;;;9.70;99.90;;;;;;5063879;28;20218;-85
2023/09/15 04:21:17;;;;;;;6.03;2.33;;;9.70;99.90;;;;;;5067255;28;20173;-85
2023/09/15 04:23:43;;;;;;;5.10;2.50;;;9.80;99.90;;;;;;5071118;28;20168;-85
2023/09/15 04:26:09;;;;;;;3.80;2.63;;;9.80;99.90;;;;;;5073495;28;20172;-88
2023/09/15 04:28:34;;;;;;;6.17;2.80;;;9.90;99.90;;;;;;5073419;28;20198;-85
2023/09/15 04:31:00;;;;;;;6.23;3.00;;;10.00;99.90;;;;;;5082883;28;20176;-85
2023/09/15 04:33:25;;;;;;;4.97;3.30;;;10.00;99.90;;;;;;5090195;28;20550;-86
2023/09/15 04:35:51;;;;;;;11.03;3.93;;;10.00;99.90;;;;;;5074448;28;20188;-85
2023/09/15 04:38:17;;;;;;;8.10;3.77;;;9.90;99.90;;;;;;5070612;28;20717;-85
2023/09/15 04:40:43;;;;;;;8.37;3.77;;;9.80;99.90;;;;;;5075778;28;20223;-86
2023/09/15 04:43:08;;;;;;;6.20;3.47;;;9.80;99.90;;;;;;5075630;28;20576;-85
2023/09/15 04:45:34;;;;;;;6.50;3.43;;;9.80;99.90;;;;;;5057769;28;20172;-85
2023/09/15 04:48:00;;;;;;;6.93;3.77;;;9.80;99.90;;;;;;5069015;28;20203;-85
2023/09/15 04:50:26;;;;;;;4.33;3.10;;;9.80;99.90;;;;;;5095567;28;20255;-85
2023/09/15 04:52:52;;;;;;;6.07;3.90;;;9.90;99.90;;;;;;5095366;28;20196;-86
2023/09/15 04:55:19;;;;;;;7.23;3.47;;;9.80;99.90;;;;;;5087462;28;20172;-87
2023/09/15 04:57:46;;;;;;;4.27;2.87;;;9.70;99.90;;;;;;5077385;28;20632;-85
2023/09/15 05:00:23;;;;;;;6.47;3.57;;;9.90;99.90;;;;;;5095551;28;20168;-85
2023/09/15 05:02:49;;;;;;;5.20;3.20;;;9.80;99.90;;;;;;5096075;28;20187;-85
2023/09/15 05:05:14;;;;;;;6.53;3.03;;;9.70;99.90;;;;;;5078224;28;20553;-85
2023/09/15 05:07:40;;;;;;;4.90;3.07;;;9.60;99.90;;;;;;5069033;28;20251;-85
2023/09/15 05:10:07;;;;;;;5.47;3.13;;;9.70;99.90;;;;;;5066046;28;20261;-86
2023/09/15 05:12:33;;;;;;;5.13;3.00;;;9.70;99.90;;;;;;5067986;28;20183;-84
2023/09/15 05:14:59;;;;;;;5.10;2.73;;;9.70;99.90;;;;;;5056818;28;20180;-85
2023/09/15 05:17:24;;;;;;;5.10;3.23;;;9.60;99.90;;;;;;5057237;28;20203;-85
2023/09/15 05:19:51;;;;;;;6.60;3.20;;;9.70;99.90;;;;;;5057352;28;20230;-84
2023/09/15 05:22:17;;;;;;;10.93;3.23;;;9.70;99.90;;;;;;5075504;28;20555;-85
2023/09/15 05:24:42;;;;;;;7.00;3.13;;;9.70;99.90;;;;;;5057589;28;20166;-85
2023/09/15 05:27:08;;;;;;;5.03;3.00;;;9.70;99.90;;;;;;5075819;28;20531;-82
2023/09/15 05:29:34;;;;;;;4.00;2.90;;;9.70;99.90;;;;;;5078822;28;20207;-85
2023/09/15 05:31:59;;;;;;;4.87;2.90;;;9.70;99.90;;;;;;5082777;28;20196;-85
2023/09/15 05:34:25;;;;;;;3.90;3.13;;;9.70;99.90;;;;;;5083200;28;20658;-84
2023/09/15 05:36:51;;;;;;;4.50;3.03;;;9.70;99.90;;;;;;5083388;28;20311;-85
2023/09/15 05:39:16;;;;;;;4.20;3.10;;;9.80;99.90;;;;;;5074779;28;20234;-84
2023/09/15 05:41:42;;;;;;;5.73;3.40;;;10.00;99.90;;;;;;5056658;28;20172;-85
2023/09/15 05:44:07;;;;;;;11.97;4.00;;;9.90;99.90;;;;;;5072446;28;20185;-83
2023/09/15 05:46:33;;;;;;;6.33;3.30;;;9.90;99.90;;;;;;5072904;28;20263;-84
2023/09/15 05:48:59;;;;;;;7.40;3.60;;;9.90;99.90;;;;;;5076705;28;20215;-81
2023/09/15 05:51:24;;;;;;;6.57;3.20;;;10.00;99.90;;;;;;5087960;28;20188;-78
2023/09/15 05:53:50;;;;;;;5.03;3.07;;;10.00;99.90;;;;;;5067706;28;20172;-82
2023/09/15 05:56:16;;;;;;;7.90;3.40;;;10.00;99.90;;;;;;5075252;28;20176;-82
2023/09/15 05:58:41;;;;;;;5.87;3.20;;;9.90;99.90;;;;;;5075039;28;20220;-81
2023/09/15 06:01:07;;;;;;;3.60;2.90;;;10.00;99.90;;;;;;5075452;28;20207;-81
2023/09/15 06:03:32;;;;;;;6.40;3.23;;;10.10;99.90;;;;;;5076300;28;20260;-81
2023/09/15 06:05:58;;;;;;;4.07;3.03;;;10.20;99.90;;;;;;5094782;28;20179;-82
2023/09/15 06:08:24;;;;;;;6.43;3.13;;;10.30;99.90;;;;;;5083467;28;20192;-81
2023/09/15 06:10:49;;;;;;;5.57;2.80;;;10.20;99.90;;;;;;5084335;28;20255;-79
2023/09/15 06:13:15;;;;;;;4.23;3.00;;;10.10;99.90;;;;;;5094307;28;20180;-81
2023/09/15 06:15:42;;;;;;;4.13;3.37;;;10.20;99.90;;;;;;5094291;28;20192;-83
2023/09/15 06:18:07;;;;;;;4.60;3.20;;;10.30;99.90;;;;;;5093175;28;20665;-80
2023/09/15 06:20:33;;;;;;;4.40;2.90;;;10.60;99.90;;;;;;5092943;28;20173;-81
2023/09/15 06:22:59;;;;;;;4.17;2.90;;;10.70;99.90;;;;;;5093020;28;20259;-81
2023/09/15 06:25:25;;;;;;;5.07;2.67;;;10.70;99.90;;;;;;5094708;28;20240;-82
2023/09/15 06:27:50;;;;;;;2.40;2.20;;;10.60;99.90;;;;;;5094227;28;20234;-81
2023/09/15 06:30:16;;;;;;;3.57;2.30;;;10.70;99.90;;;;;;5094206;28;20618;-83
2023/09/15 06:32:42;;;;;;;2.53;2.30;;;10.60;99.90;;;;;;5084151;28;20176;-81
2023/09/15 06:35:12;;;;;;;2.67;2.10;;;10.50;99.90;;;;;;5094011;28;20682;-81
2023/09/15 06:37:38;;;;;;;2.50;2.13;;;10.50;99.90;;;;;;5093795;28;20204;-81
2023/09/15 06:40:06;;;;;;;3.00;2.33;;;10.50;99.90;;;;;;5094014;28;20171;-81
2023/09/15 06:42:32;;;;;;;4.73;2.60;;;10.50;99.90;;;;;;5092297;28;20182;-82
2023/09/15 06:44:57;;;;;;;4.07;2.40;;;10.60;99.90;;;;;;5092550;28;20549;-81
2023/09/15 06:47:23;;;;;;;3.93;2.70;;;10.70;99.90;;;;;;5092223;28;20193;-81
2023/09/15 06:49:48;;;;;;;2.40;2.20;;;10.80;99.90;;;;;;5093905;28;20199;-81
2023/09/15 06:52:14;;;;;;;2.60;2.30;;;10.90;99.90;;;;;;5092368;28;20233;-82
2023/09/15 06:54:39;;;;;;;2.67;2.47;;;11.00;99.90;;;;;;5093803;28;20182;-82
2023/09/15 06:57:05;;;;;;;3.00;2.70;;;11.00;99.90;;;;;;5094776;28;20690;-83
2023/09/15 06:59:30;;;;;;;4.57;2.80;;;10.90;99.90;;;;;;5093682;28;20183;-81
2023/09/15 07:01:59;;;;;;;3.03;2.73;;;11.10;99.90;;;;;;5095308;28;20172;-83
2023/09/15 07:04:25;;;;;;;3.20;2.90;;;11.10;99.90;;;;;;5093026;28;20298;-83
2023/09/15 07:06:50;;;;;;;5.00;2.90;;;11.20;99.90;;;;;;5083241;28;20699;-83
2023/09/15 07:09:16;;;;;;;4.50;2.73;;;11.20;99.90;;;;;;5130145;22;20231;-84
2023/09/15 07:11:41;;;;;;;3.53;2.80;;;11.40;99.90;;;;;;5090338;28;20254;-87
2023/09/15 07:14:07;;;;;;;3.10;2.70;;;11.40;99.90;;;;;;5090580;28;20195;-81
2023/09/15 07:16:33;;;;;;;3.80;2.97;;;11.40;99.90;;;;;;5074467;28;20192;-84
2023/09/15 07:18:59;;;;;;;3.17;2.80;;;11.50;99.90;;;;;;5074561;28;20717;-85
2023/09/15 07:21:24;;;;;;;3.47;3.13;;;11.50;99.90;;;;;;5092630;28;20180;-84
2023/09/15 07:23:50;;;;;;;6.77;3.30;;;11.60;99.90;;;;;;5092429;28;20178;-84
2023/09/15 07:26:16;;;;;;;3.43;3.13;;;11.60;99.90;;;;;;5074423;28;20168;-84
2023/09/15 07:28:42;;;;;;;3.50;3.03;;;11.70;99.90;;;;;;5074551;28;20184;-82
2023/09/15 07:31:10;;;;;;;3.57;3.10;;;11.70;99.90;;;;;;5082698;28;20178;-86
2023/09/15 07:33:35;;;;;;;3.30;2.60;;;11.80;99.90;;;;;;5096049;28;20210;-81
2023/09/15 07:36:03;;;;;;;4.23;2.80;;;11.80;99.90;;;;;;5097097;28;20176;-81
2023/09/15 07:38:30;;;;;;;3.40;2.80;;;12.50;99.90;;;;;;5097285;28;20207;-81
2023/09/15 07:40:56;;;;;;;3.43;2.63;;;13.00;99.90;;;;;;5095739;28;20172;-83
2023/09/15 07:43:22;;;;;;;3.43;3.13;;;13.30;99.90;;;;;;5095191;28;20179;-80
2023/09/15 07:45:48;;;;;;;3.73;3.33;;;13.70;99.90;;;;;;5091654;28;20175;-84
2023/09/15 07:48:14;;;;;;;3.90;3.60;;;13.60;99.90;;;;;;5066985;28;20196;-84
2023/09/15 07:50:40;;;;;;;4.30;3.63;;;13.40;99.90;;;;;;5067750;28;20171;-84
2023/09/15 07:53:05;;;;;;;4.47;3.87;;;13.40;99.90;;;;;;5084426;28;20186;-84
2023/09/15 07:55:31;;;;;;;6.40;3.90;;;13.40;99.90;;;;;;5080227;28;20193;-85
2023/09/15 07:57:57;;;;;;;5.10;4.37;;;13.50;99.90;;;;;;5080619;28;20200;-87
2023/09/15 08:00:23;;;;;;;4.67;4.00;;;13.40;99.90;;;;;;5062177;28;20173;-82
2023/09/15 08:02:49;;;;;;;5.13;4.30;;;13.50;99.90;;;;;;5090916;28;20660;-86
2023/09/15 08:05:15;;;;;;;4.93;4.43;;;13.70;99.90;;;;;;5096426;28;20187;-83
2023/09/15 08:07:44;;;;;;;8.13;4.80;;;13.80;99.90;;;;;;5077656;28;20241;-84
2023/09/15 08:10:11;;;;;;;5.37;4.30;;;13.90;99.90;;;;;;5067751;28;20612;-84
2023/09/15 08:12:37;;;;;;;5.63;4.40;;;14.10;99.90;;;;;;5092090;28;20581;-84
2023/09/15 08:15:14;;;;;;;5.20;4.33;;;14.30;99.90;;;;;;5089668;28;20169;-84
2023/09/15 08:17:52;;;;;;;4.87;4.07;;;14.40;99.90;;;;;;5097286;28;20579;-85
2023/09/15 08:20:19;;;;;;;5.03;4.43;;;14.50;99.90;;;;;;5071616;28;20199;-84
2023/09/15 08:22:45;;;;;;;4.87;4.10;;;14.80;99.90;;;;;;5091808;28;20176;-85
2023/09/15 08:25:11;;;;;;;4.70;4.17;;;15.00;99.90;;;;;;5095361;28;20190;-84
2023/09/15 08:27:37;;;;;;;6.17;4.43;;;15.20;99.90;;;;;;5095938;28;20184;-84
2023/09/15 08:30:04;;;;;;;4.93;4.37;;;15.40;68.70;;;;;;5077258;28;20225;-84
2023/09/15 08:32:31;;;;;;;4.90;4.03;;;15.60;1.00;;;;;;5095103;28;20713;-84
2023/09/15 08:34:57;;;;;;;4.50;4.03;;;15.80;1.00;;;;;;5077139;28;20187;-84
2023/09/15 08:37:23;;;;;;;4.73;4.10;;;16.00;1.00;;;;;;5095283;28;20207;-84
2023/09/15 08:39:49;;;;;;;4.83;3.90;;;16.10;62.90;;;;;;5077061;28;20169;-84
2023/09/15 08:42:26;;;;;;;4.97;4.17;;;16.20;1.00;;;;;;5096103;28;20193;-83
2023/09/15 08:44:53;;;;;;;4.50;3.63;;;16.40;1.00;;;;;;5095956;28;20179;-84
2023/09/15 08:47:20;;;;;;;4.23;3.83;;;16.60;1.00;;;;;;5095628;28;20173;-87
2023/09/15 08:49:48;;;;;;;4.30;3.83;;;16.80;1.00;;;;;;5093304;28;20188;-84
2023/09/15 08:52:15;;;;;;;4.27;3.77;;;16.90;1.00;;;;;;5086947;28;20195;-83
2023/09/15 08:54:41;;;;;;;5.10;4.27;;;17.10;1.00;;;;;;5092234;28;20172;-84
2023/09/15 08:57:07;;;;;;;4.43;3.97;;;17.20;1.00;;;;;;5095358;28;20188;-84
2023/09/15 08:59:34;;;;;;;4.60;3.97;;;17.30;1.00;;;;;;5094988;28;20192;-84
2023/09/15 09:02:00;;;;;;;5.27;4.63;;;17.30;1.00;;;;;;5094629;28;20244;-84
2023/09/15 09:04:26;;;;;;;4.90;4.40;;;17.40;99.90;;;;;;5095108;28;20156;-84
2023/09/15 09:06:52;;;;;;;5.73;4.00;;;17.50;1.00;;;;;;5075509;28;20195;-83
2023/09/15 09:09:18;;;;;;;5.70;4.00;;;17.80;1.00;;;;;;5084818;28;20264;-84
2023/09/15 09:11:44;;;;;;;4.57;4.17;;;18.10;1.00;;;;;;5095317;28;20599;-85
2023/09/15 09:14:12;;;;;;;5.00;4.50;;;18.20;98.90;;;;;;5085011;28;20207;-84
2023/09/15 09:16:42;;;;;;;4.37;3.97;;;18.40;1.00;;;;;;5096177;28;20224;-83
2023/09/15 09:19:08;;;;;;;5.50;4.10;;;18.30;99.90;;;;;;5096779;28;20196;-83
2023/09/15 09:21:34;;;;;;;4.83;4.40;;;18.40;1.00;;;;;;5095271;28;20169;-79
2023/09/15 09:24:00;;;;;;;58.17;35.80;;;18.60;1.00;;;;;;5094142;28;20184;-80
2023/09/15 09:26:26;;;;;;;6.33;5.50;;;19.00;99.90;;;;;;5096239;28;20176;-80
2023/09/15 09:28:54;;;;;;;37.03;21.27;;;19.50;99.90;;;;;;5095999;28;20185;-80
2023/09/15 09:31:21;;;;;;;5.57;4.67;;;19.90;99.90;;;;;;5094258;28;20175;-80
2023/09/15 09:33:46;;;;;;;33.90;20.93;;;20.00;99.90;;;;;;5095133;28;20562;-81
2023/09/15 09:36:13;;;;;;;23.50;14.63;;;20.40;99.90;;;;;;5095026;28;20173;-80
2023/09/15 09:38:49;;;;;;;4.70;4.30;;;20.40;97.60;;;;;;5095315;28;20202;-83
2023/09/15 09:41:20;;;;;;;4.68;4.18;;;20.20;1.00;;;;;;5095063;28;20172;-83
2023/09/15 09:43:46;;;;;;;5.25;4.43;;;20.30;99.90;;;;;;5098057;28;20172;-81
2023/09/15 09:46:13;;;;;;;4.60;4.20;;;20.50;1.00;;;;;;5088562;28;20240;-80
2023/09/15 09:48:39;;;;;;;4.65;4.03;;;20.70;99.90;;;;;;5091035;28;20189;-82
2023/09/15 09:51:05;;;;;;;6.10;4.97;;;20.90;1.00;;;;;;5103902;28;20259;-82
2023/09/15 09:53:33;;;;;;;5.07;3.95;;;21.10;99.90;;;;;;5105669;28;20176;-81
2023/09/15 09:56:04;;;;;;;4.53;3.95;;;21.10;1.00;;;;;;5105494;28;20168;-82
2023/09/15 09:58:32;;;;;;;4.72;3.80;;;21.20;1.00;;;;;;5104915;28;20192;-82
2023/09/15 10:00:58;;;;;;;5.45;3.88;;;20.80;20.90;;;;;;5120841;28;20168;-83
2023/09/15 10:03:24;;;;;;;4.38;3.85;;;20.90;1.00;;;;;;5104459;28;20176;-82
2023/09/15 10:05:50;;;;;;;4.50;3.70;;;21.20;1.00;;;;;;5091166;28;20169;-80
2023/09/15 10:08:16;;;;;;;4.47;4.07;;;21.50;1.00;;;;;;5103610;28;20204;-80
2023/09/15 10:10:44;;;;;;;6.28;3.90;;;21.50;99.90;;;;;;5098280;28;20180;-76
2023/09/15 10:13:16;;;;;;;4.78;3.88;;;21.60;1.00;;;;;;5093434;28;20540;-79
2023/09/15 10:15:44;;;;;;;3.25;2.95;;;21.30;1.00;;;;;;5092265;28;20271;-78
2023/09/15 10:18:12;;;;;;;4.35;3.95;;;21.40;1.00;;;;;;5092015;28;20210;-78
2023/09/15 10:20:49;;;;;;;5.30;4.40;;;21.70;99.90;;;;;;5092829;28;20547;-78
2023/09/15 10:23:15;;;;;;;4.35;3.90;;;21.90;1.00;;;;;;5089502;28;20161;-82
2023/09/15 10:25:54;;;;;;;4.20;3.80;;;22.00;1.00;;;;;;5092760;28;20226;-82
2023/09/15 10:28:22;;;;;;;4.40;4.00;;;21.80;99.90;;;;;;5073911;28;20200;-79
2023/09/15 10:30:55;;;;;;;3.67;3.10;;;22.00;1.00;;;;;;5087596;28;20181;-79
2023/09/15 10:33:26;;;;;;;4.35;3.90;;;22.30;99.90;;;;;;5092809;28;20183;-79
2023/09/15 10:35:52;;;;;;;3.33;3.03;;;22.50;1.00;;;;;;5092997;28;20230;-79
2023/09/15 10:38:28;;;;;;;4.97;3.63;;;22.60;1.00;;;;;;5092581;28;20208;-79
2023/09/15 10:40:54;;;;;;;4.38;3.70;;;22.50;99.90;;;;;;5092455;28;20251;-79
2023/09/15 10:43:20;;;;;;;4.03;3.65;;;22.40;99.90;;;;;;5082931;28;20198;-79
2023/09/15 10:45:57;;;;;;;4.40;3.42;;;22.50;99.90;;;;;;5082984;28;20165;-81
2023/09/15 10:48:23;;;;;;;4.38;3.20;;;22.60;1.00;;;;;;5092469;28;20253;-78
2023/09/15 10:50:49;;;;;;;4.95;3.63;;;22.60;63.60;;;;;;5108628;28;20270;-78
2023/09/15 10:53:15;;;;;;;5.05;3.58;;;22.60;99.90;;;;;;5091570;28;20183;-78
2023/09/15 10:55:41;;;;;;;4.68;3.88;;;22.60;1.00;;;;;;5091400;28;20172;-78
2023/09/15 10:58:07;;;;;;;4.40;3.50;;;22.80;57.10;;;;;;5092357;28;20261;-79
2023/09/15 11:00:33;;;;;;;3.92;3.30;;;23.00;99.90;;;;;;5094239;28;20172;-80
2023/09/15 11:02:59;;;;;;;5.22;3.30;;;23.40;1.00;;;;;;5095272;28;20214;-81
2023/09/15 11:05:28;;;;;;;4.43;3.50;;;23.60;96.80;;;;;;5096221;28;20172;-82
2023/09/15 11:07:58;;;;;;;4.25;3.55;;;23.80;1.00;;;;;;5095775;28;20211;-79
2023/09/15 11:10:28;;;;;;;4.25;3.05;;;23.90;1.00;;;;;;5090865;28;20199;-81
2023/09/15 11:13:03;;;;;;;3.33;3.00;;;24.00;1.00;;;;;;5094437;28;20180;-82
2023/09/15 11:15:28;;;;;;;3.78;3.40;;;23.90;99.90;;;;;;5094744;28;20247;-81
2023/09/15 11:17:54;;;;;;;4.57;3.40;;;23.70;99.90;;;;;;5095945;28;20227;-82
2023/09/15 11:20:21;;;;;;;3.85;3.10;;;23.50;99.90;;;;;;5095090;28;20168;-82
2023/09/15 11:22:47;;;;;;;3.58;3.25;;;23.70;99.90;;;;;;5092888;28;20175;-82
2023/09/15 11:25:13;;;;;;;3.13;2.90;;;24.10;99.90;;;;;;5093622;28;20528;-81
2023/09/15 11:27:39;;;;;;;3.88;3.22;;;24.40;99.90;;;;;;5094813;28;20195;-81
2023/09/15 11:30:05;;;;;;;3.30;3.00;;;24.60;98.70;;;;;;5095564;28;20271;-84
2023/09/15 11:32:34;;;;;;;4.47;3.22;;;24.60;26.30;;;;;;5097007;28;20172;-83
2023/09/15 11:35:05;;;;;;;3.75;3.20;;;24.60;99.90;;;;;;5096431;28;20169;-81
2023/09/15 11:37:31;;;;;;;3.50;3.20;;;24.70;24.50;;;;;;5096823;28;20272;-81
2023/09/15 11:39:57;;;;;;;5.13;3.10;;;24.80;91.50;;;;;;5100021;28;20206;-83
2023/09/15 11:42:24;;;;;;;3.20;2.88;;;24.80;82.00;;;;;;5099218;28;20255;-81
2023/09/15 11:44:50;;;;;;;3.92;3.03;;;24.90;1.00;;;;;;5099815;28;20219;-80
2023/09/15 11:47:16;;;;;;;3.95;3.22;;;25.00;1.00;;;;;;5100429;28;20191;-81
2023/09/15 11:49:42;;;;;;;3.17;2.83;;;24.70;1.00;;;;;;5100074;28;20192;-81
2023/09/15 11:52:08;;;;;;;4.13;3.38;;;24.90;1.00;;;;;;5099460;28;20176;-81
2023/09/15 11:54:33;;;;;;;3.63;3.08;;;25.10;1.00;;;;;;5098434;28;20215;-81
2023/09/15 11:57:01;;;;;;;4.28;3.20;;;25.00;1.00;;;;;;5099573;28;20196;-81
2023/09/15 11:59:28;;;;;;;4.95;2.70;;;25.30;29.40;;;;;;5099461;28;20195;-81
2023/09/15 12:02:00;;;;;;;3.33;2.90;;;25.60;1.00;;;;;;5098638;28;20168;-81
2023/09/15 12:04:26;;;;;;;3.80;3.28;;;25.90;1.00;;;;;;5100097;28;20698;-84
2023/09/15 12:06:53;;;;;;;3.55;2.70;;;26.00;1.00;;;;;;5098830;28;20210;-82
2023/09/15 12:09:19;;;;;;;3.05;2.75;;;25.50;1.00;;;;;;5098102;28;20212;-81
2023/09/15 12:11:45;;;;;;;2.90;2.60;;;25.50;1.00;;;;;;5097472;28;20176;-81
2023/09/15 12:14:15;;;;;;;3.15;2.88;;;25.50;1.00;;;;;;5099501;28;20226;-81
2023/09/15 12:16:45;;;;;;;2.70;2.50;;;25.60;1.00;;;;;;5098001;28;20218;-81
2023/09/15 12:19:11;;;;;;;3.78;2.58;;;25.40;1.00;;;;;;5115221;28;20245;-81
2023/09/15 12:21:37;;;;;;;3.33;2.80;;;25.70;1.00;;;;;;5098722;28;20179;-81
2023/09/15 12:24:10;;;;;;;3.05;2.70;;;26.10;1.00;;;;;;5100449;28;20171;-82
2023/09/15 12:26:41;;;;;;;3.10;2.80;;;26.00;1.00;;;;;;5101455;28;20224;-79
2023/09/15 12:29:06;;;;;;;3.63;2.63;;;26.20;1.00;;;;;;5100491;28;20201;-82
2023/09/15 12:31:41;;;;;;;4.35;2.65;;;25.90;1.00;;;;;;5099469;28;20209;-81
2023/09/15 12:34:06;;;;;;;3.42;2.97;;;26.50;1.00;;;;;;5099671;28;20168;-83
2023/09/15 12:36:32;;;;;;;2.97;2.60;;;26.80;1.00;;;;;;5100072;28;20595;-82
2023/09/15 12:38:58;;;;;;;2.75;2.45;;;26.50;1.00;;;;;;5099814;28;20542;-82
2023/09/15 12:41:24;;;;;;;3.20;2.60;;;26.40;1.00;;;;;;5098415;28;20175;-82
2023/09/15 12:43:49;;;;;;;2.55;2.35;;;26.30;1.00;;;;;;5099797;28;20176;-81
2023/09/15 12:46:15;;;;;;;3.55;2.47;;;26.60;1.00;;;;;;5100119;28;20165;-82
2023/09/15 12:48:40;;;;;;;3.20;2.90;;;27.10;1.00;;;;;;5099383;28;20683;-82